createdAt,value
2018-11-23T00:00:11.986Z,0
2018-11-23T00:00:52.544Z,0
2018-11-23T00:01:33.104Z,0
2018-11-23T00:02:13.662Z,0
2018-11-23T00:02:54.218Z,0
2018-11-23T00:03:34.779Z,0
2018-11-23T00:04:15.339Z,0
2018-11-23T00:04:55.927Z,0
2018-11-23T00:05:36.478Z,0
2018-11-23T00:06:17.055Z,0
2018-11-23T00:06:57.617Z,0
2018-11-23T00:07:38.215Z,0
2018-11-23T00:08:18.771Z,0
2018-11-23T00:08:59.305Z,0
2018-11-23T00:09:39.852Z,0
2018-11-23T00:10:20.409Z,0
2018-11-23T00:11:01.033Z,0
2018-11-23T00:11:41.604Z,0
2018-11-23T00:12:22.146Z,0
2018-11-23T00:13:02.700Z,0
2018-11-23T00:13:43.255Z,0
2018-11-23T00:14:23.811Z,0
2018-11-23T00:15:04.351Z,0
2018-11-23T00:15:44.935Z,0
2018-11-23T00:16:25.482Z,0
2018-11-23T00:17:06.044Z,0
2018-11-23T00:17:46.616Z,0
2018-11-23T00:18:27.166Z,0
2018-11-23T00:19:07.731Z,0
2018-11-23T00:19:48.287Z,0
2018-11-23T00:20:28.918Z,0
2018-11-23T00:21:09.392Z,0
2018-11-23T00:21:49.987Z,0
2018-11-23T00:22:30.514Z,0
2018-11-23T00:23:11.072Z,0
2018-11-23T00:23:51.624Z,0
2018-11-23T00:24:32.175Z,0
2018-11-23T00:25:12.727Z,0
2018-11-23T00:25:53.300Z,0
2018-11-23T00:26:33.855Z,0
2018-11-23T00:27:14.426Z,0
2018-11-23T00:27:54.996Z,0
2018-11-23T00:28:35.532Z,0
2018-11-23T00:29:16.133Z,0
2018-11-23T00:29:56.719Z,0
2018-11-23T00:30:37.269Z,0
2018-11-23T00:31:17.815Z,0
2018-11-23T00:31:58.381Z,0
2018-11-23T00:32:39.022Z,0
2018-11-23T00:33:19.573Z,0
2018-11-23T00:34:00.124Z,0
2018-11-23T00:34:40.673Z,0
2018-11-23T00:35:21.241Z,0
2018-11-23T00:36:01.798Z,0
2018-11-23T00:36:42.352Z,0
2018-11-23T00:37:22.910Z,0
2018-11-23T00:38:03.466Z,0
2018-11-23T00:38:44.027Z,0
2018-11-23T00:39:24.597Z,0
2018-11-23T00:40:05.278Z,0
2018-11-23T00:40:45.849Z,0
2018-11-23T00:41:26.417Z,0
2018-11-23T00:42:07.037Z,0
2018-11-23T00:42:47.606Z,0
2018-11-23T00:43:28.174Z,0
2018-11-23T00:44:08.724Z,0
2018-11-23T00:44:49.293Z,0
2018-11-23T00:45:29.853Z,0
2018-11-23T00:46:10.413Z,0
2018-11-23T00:46:51.038Z,0
2018-11-23T00:47:31.546Z,0
2018-11-23T00:48:12.105Z,0
2018-11-23T00:48:52.654Z,0
2018-11-23T00:49:33.235Z,0
2018-11-23T00:50:13.778Z,0
2018-11-23T00:50:54.343Z,0
2018-11-23T00:51:34.916Z,0
2018-11-23T00:52:15.485Z,0
2018-11-23T00:52:56.026Z,0
2018-11-23T00:53:36.599Z,0
2018-11-23T00:54:17.152Z,0
2018-11-23T00:54:57.718Z,0
2018-11-23T00:55:38.283Z,0
2018-11-23T00:56:18.840Z,0
2018-11-23T00:56:59.395Z,0
2018-11-23T00:57:39.947Z,0
2018-11-23T00:58:20.557Z,0
2018-11-23T00:59:01.116Z,0
2018-11-23T00:59:41.701Z,0
2018-11-23T01:00:22.261Z,0
2018-11-23T01:01:02.832Z,0
2018-11-23T01:01:43.381Z,0
2018-11-23T01:02:23.954Z,0
2018-11-23T01:03:04.489Z,0
2018-11-23T01:03:45.031Z,0
2018-11-23T01:04:25.591Z,0
2018-11-23T01:05:06.157Z,0
2018-11-23T01:05:46.712Z,0
2018-11-23T01:06:27.275Z,0
2018-11-23T01:07:07.852Z,0
2018-11-23T01:07:48.491Z,0
2018-11-23T01:08:29.047Z,0
2018-11-23T01:09:09.626Z,0
2018-11-23T01:09:50.191Z,0
2018-11-23T01:10:30.747Z,0
2018-11-23T01:11:11.331Z,0
2018-11-23T01:11:51.958Z,0
2018-11-23T01:12:32.534Z,0
2018-11-23T01:13:13.109Z,0
2018-11-23T01:13:53.664Z,0
2018-11-23T01:14:34.224Z,0
2018-11-23T01:15:14.790Z,0
2018-11-23T01:15:55.340Z,0
2018-11-23T01:16:35.910Z,0
2018-11-23T01:17:16.468Z,0
2018-11-23T01:17:57.024Z,0
2018-11-23T01:18:37.567Z,0
2018-11-23T01:19:18.117Z,0
2018-11-23T01:19:58.675Z,0
2018-11-23T01:20:39.225Z,0
2018-11-23T01:21:19.779Z,0
2018-11-23T01:22:00.329Z,0
2018-11-23T01:22:40.900Z,0
2018-11-23T01:23:21.484Z,0
2018-11-23T01:24:02.049Z,0
2018-11-23T01:24:42.650Z,0
2018-11-23T01:25:23.224Z,0
2018-11-23T01:26:03.790Z,0
2018-11-23T01:26:44.444Z,0
2018-11-23T01:27:25.017Z,0
2018-11-23T01:28:05.560Z,0
2018-11-23T01:28:46.110Z,0
2018-11-23T01:29:26.677Z,0
2018-11-23T01:30:07.242Z,0
2018-11-23T01:30:47.788Z,0
2018-11-23T01:31:28.341Z,0
2018-11-23T01:32:08.900Z,0
2018-11-23T01:32:49.441Z,0
2018-11-23T01:33:29.982Z,0
2018-11-23T01:34:10.541Z,0
2018-11-23T01:34:51.099Z,0
2018-11-23T01:35:31.652Z,0
2018-11-23T01:36:12.200Z,0
2018-11-23T01:36:52.748Z,0
2018-11-23T01:37:33.317Z,0
2018-11-23T01:38:13.909Z,0
2018-11-23T01:38:54.468Z,0
2018-11-23T01:39:35.030Z,0
2018-11-23T01:40:15.571Z,0
2018-11-23T01:40:56.149Z,0
2018-11-23T01:41:36.731Z,0
2018-11-23T01:42:17.296Z,0
2018-11-23T01:42:57.850Z,0
2018-11-23T01:43:38.406Z,0
2018-11-23T01:44:18.977Z,0
2018-11-23T01:44:59.531Z,0
2018-11-23T01:45:40.086Z,0
2018-11-23T01:46:20.681Z,0
2018-11-23T01:47:01.222Z,0
2018-11-23T01:47:41.813Z,0
2018-11-23T01:48:22.378Z,0
2018-11-23T01:49:02.928Z,0
2018-11-23T01:49:43.479Z,0
2018-11-23T01:50:24.043Z,0
2018-11-23T01:51:04.605Z,0
2018-11-23T01:51:45.159Z,0
2018-11-23T01:52:25.719Z,0
2018-11-23T01:53:06.279Z,0
2018-11-23T01:53:46.867Z,0
2018-11-23T01:54:27.426Z,0
2018-11-23T01:55:07.971Z,0
2018-11-23T01:55:48.515Z,0
2018-11-23T01:56:29.082Z,0
2018-11-23T01:57:09.642Z,0
2018-11-23T01:57:50.184Z,0
2018-11-23T01:58:30.759Z,0
2018-11-23T01:59:11.319Z,0
2018-11-23T01:59:51.894Z,0
2018-11-23T02:00:32.457Z,0
2018-11-23T02:01:13.017Z,0
2018-11-23T02:01:53.576Z,0
2018-11-23T02:02:34.152Z,0
2018-11-23T02:03:14.745Z,0
2018-11-23T02:03:55.338Z,0
2018-11-23T02:04:35.927Z,0
2018-11-23T02:05:16.508Z,0
2018-11-23T02:05:57.067Z,0
2018-11-23T02:06:37.650Z,0
2018-11-23T02:07:18.198Z,0
2018-11-23T02:07:58.778Z,0
2018-11-23T02:08:39.328Z,0
2018-11-23T02:09:19.899Z,0
2018-11-23T02:10:00.464Z,0
2018-11-23T02:10:41.023Z,0
2018-11-23T02:11:21.587Z,0
2018-11-23T02:12:02.187Z,0
2018-11-23T02:12:42.704Z,0
2018-11-23T02:13:23.268Z,0
2018-11-23T02:14:03.825Z,0
2018-11-23T02:14:44.384Z,0
2018-11-23T02:15:24.949Z,0
2018-11-23T02:16:05.511Z,0
2018-11-23T02:16:46.073Z,0
2018-11-23T02:17:26.628Z,0
2018-11-23T02:18:07.187Z,0
2018-11-23T02:18:47.816Z,0
2018-11-23T02:19:28.328Z,0
2018-11-23T02:20:08.886Z,0
2018-11-23T02:20:49.445Z,0
2018-11-23T02:21:30.023Z,0
2018-11-23T02:22:10.581Z,0
2018-11-23T02:22:51.139Z,0
2018-11-23T02:23:31.684Z,0
2018-11-23T02:24:12.254Z,0
2018-11-23T02:24:52.799Z,0
2018-11-23T02:25:33.345Z,0
2018-11-23T02:26:13.915Z,0
2018-11-23T02:26:54.496Z,0
2018-11-23T02:27:35.061Z,0
2018-11-23T02:28:15.639Z,0
2018-11-23T02:28:56.192Z,0
2018-11-23T02:29:36.749Z,0
2018-11-23T02:30:17.322Z,0
2018-11-23T02:30:57.882Z,0
2018-11-23T02:31:38.479Z,0
2018-11-23T02:32:19.014Z,0
2018-11-23T02:32:59.573Z,0
2018-11-23T02:33:40.113Z,0
2018-11-23T02:34:20.702Z,0
2018-11-23T02:35:01.283Z,0
2018-11-23T02:35:41.837Z,0
2018-11-23T02:36:22.390Z,0
2018-11-23T02:37:02.964Z,0
2018-11-23T02:37:43.511Z,0
2018-11-23T02:38:24.094Z,0
2018-11-23T02:39:04.645Z,0
2018-11-23T02:39:45.191Z,0
2018-11-23T02:40:25.741Z,0
2018-11-23T02:41:06.302Z,0
2018-11-23T02:41:46.863Z,0
2018-11-23T02:42:27.522Z,0
2018-11-23T02:43:08.114Z,0
2018-11-23T02:43:48.661Z,0
2018-11-23T02:44:29.219Z,0
2018-11-23T02:45:09.754Z,0
2018-11-23T02:45:50.307Z,0
2018-11-23T02:46:30.900Z,0
2018-11-23T02:47:11.448Z,0
2018-11-23T02:47:51.987Z,0
2018-11-23T02:48:32.541Z,0
2018-11-23T02:49:13.097Z,0
2018-11-23T02:49:53.706Z,0
2018-11-23T02:50:34.258Z,0
2018-11-23T02:51:14.821Z,0
2018-11-23T02:51:55.370Z,0
2018-11-23T02:52:35.942Z,0
2018-11-23T02:53:16.503Z,0
2018-11-23T02:53:57.086Z,0
2018-11-23T02:54:37.639Z,0
2018-11-23T02:55:18.187Z,0
2018-11-23T02:55:58.767Z,0
2018-11-23T02:56:39.320Z,0
2018-11-23T02:57:19.872Z,0
2018-11-23T02:58:00.494Z,0
2018-11-23T02:58:41.055Z,0
2018-11-23T02:59:23.910Z,0
2018-11-23T03:00:02.189Z,0
2018-11-23T03:00:42.767Z,0
2018-11-23T03:01:23.331Z,0
2018-11-23T03:02:03.869Z,0
2018-11-23T03:02:44.426Z,0
2018-11-23T03:03:24.977Z,0
2018-11-23T03:04:05.542Z,0
2018-11-23T03:04:46.136Z,0
2018-11-23T03:05:26.684Z,0
2018-11-23T03:06:07.244Z,0
2018-11-23T03:06:47.811Z,0
2018-11-23T03:07:28.379Z,0
2018-11-23T03:08:08.921Z,0
2018-11-23T03:08:49.480Z,0
2018-11-23T03:09:30.040Z,0
2018-11-23T03:10:10.577Z,0
2018-11-23T03:10:51.140Z,0
2018-11-23T03:11:31.712Z,0
2018-11-23T03:12:12.379Z,0
2018-11-23T03:12:52.924Z,0
2018-11-23T03:13:33.508Z,0
2018-11-23T03:14:14.068Z,0
2018-11-23T03:14:54.640Z,0
2018-11-23T03:15:35.216Z,0
2018-11-23T03:16:15.775Z,0
2018-11-23T03:16:56.349Z,0
2018-11-23T03:17:36.900Z,0
2018-11-23T03:18:17.454Z,0
2018-11-23T03:18:58.009Z,0
2018-11-23T03:19:38.559Z,0
2018-11-23T03:20:19.127Z,0
2018-11-23T03:20:59.699Z,0
2018-11-23T03:21:40.262Z,0
2018-11-23T03:22:20.811Z,0
2018-11-23T03:23:01.391Z,0
2018-11-23T03:23:41.968Z,0
2018-11-23T03:24:22.519Z,0
2018-11-23T03:25:03.097Z,0
2018-11-23T03:25:43.678Z,0
2018-11-23T03:26:24.252Z,0
2018-11-23T03:27:04.823Z,0
2018-11-23T03:27:45.380Z,0
2018-11-23T03:28:25.941Z,0
2018-11-23T03:29:06.520Z,0
2018-11-23T03:29:47.089Z,0
2018-11-23T03:30:27.663Z,0
2018-11-23T03:31:12.361Z,0
2018-11-23T03:31:48.757Z,0
2018-11-23T03:32:29.301Z,0
2018-11-23T03:33:09.855Z,0
2018-11-23T03:33:50.412Z,0
2018-11-23T03:34:31.029Z,0
2018-11-23T03:35:11.574Z,0
2018-11-23T03:35:52.121Z,0
2018-11-23T03:36:32.690Z,0
2018-11-23T03:37:13.251Z,0
2018-11-23T03:37:53.817Z,0
2018-11-23T03:38:34.416Z,0
2018-11-23T03:39:14.979Z,0
2018-11-23T03:39:55.555Z,0
2018-11-23T03:40:36.111Z,0
2018-11-23T03:41:16.658Z,0
2018-11-23T03:41:57.204Z,0
2018-11-23T03:42:37.799Z,0
2018-11-23T03:43:18.351Z,0
2018-11-23T03:43:58.921Z,0
2018-11-23T03:44:39.479Z,0
2018-11-23T03:45:20.038Z,0
2018-11-23T03:46:00.592Z,0
2018-11-23T03:46:41.144Z,0
2018-11-23T03:47:21.698Z,0
2018-11-23T03:48:02.271Z,0
2018-11-23T03:48:42.862Z,0
2018-11-23T03:49:23.408Z,0
2018-11-23T03:50:03.966Z,0
2018-11-23T03:50:44.553Z,0
2018-11-23T03:51:25.165Z,0
2018-11-23T03:52:05.726Z,0
2018-11-23T03:52:46.281Z,0
2018-11-23T03:53:26.847Z,0
2018-11-23T03:54:07.415Z,0
2018-11-23T03:54:47.960Z,0
2018-11-23T03:55:28.535Z,0
2018-11-23T03:56:09.097Z,0
2018-11-23T03:56:49.650Z,0
2018-11-23T03:57:30.234Z,0
2018-11-23T03:58:10.802Z,0
2018-11-23T03:58:51.365Z,0
2018-11-23T03:59:31.966Z,0
2018-11-23T04:00:17.050Z,0
2018-11-23T04:00:53.049Z,0
2018-11-23T04:01:33.597Z,0
2018-11-23T04:02:14.144Z,0
2018-11-23T04:02:54.722Z,0
2018-11-23T04:03:35.311Z,0
2018-11-23T04:04:15.927Z,0
2018-11-23T04:04:56.440Z,0
2018-11-23T04:05:37.028Z,0
2018-11-23T04:06:17.632Z,0
2018-11-23T04:06:58.287Z,0
2018-11-23T04:07:38.942Z,0
2018-11-23T04:08:19.592Z,0
2018-11-23T04:09:00.155Z,0
2018-11-23T04:09:40.706Z,0
2018-11-23T04:10:21.272Z,0
2018-11-23T04:11:01.848Z,0
2018-11-23T04:11:42.404Z,0
2018-11-23T04:12:22.964Z,0
2018-11-23T04:13:03.511Z,0
2018-11-23T04:13:44.077Z,0
2018-11-23T04:14:24.653Z,0
2018-11-23T04:15:05.214Z,0
2018-11-23T04:15:45.765Z,0
2018-11-23T04:16:26.311Z,0
2018-11-23T04:17:06.877Z,0
2018-11-23T04:17:47.429Z,0
2018-11-23T04:18:27.985Z,0
2018-11-23T04:19:08.526Z,0
2018-11-23T04:19:49.069Z,0
2018-11-23T04:20:29.639Z,0
2018-11-23T04:21:10.178Z,0
2018-11-23T04:21:50.742Z,0
2018-11-23T04:22:31.322Z,0
2018-11-23T04:23:11.876Z,0
2018-11-23T04:23:52.433Z,0
2018-11-23T04:24:32.991Z,0
2018-11-23T04:25:13.565Z,0
2018-11-23T04:25:54.126Z,0
2018-11-23T04:26:34.683Z,0
2018-11-23T04:27:15.240Z,0
2018-11-23T04:27:55.806Z,0
2018-11-23T04:28:36.364Z,0
2018-11-23T04:29:16.973Z,0
2018-11-23T04:29:57.473Z,0
2018-11-23T04:30:38.038Z,0
2018-11-23T04:31:18.596Z,0
2018-11-23T04:31:59.160Z,0
2018-11-23T04:32:39.721Z,0
2018-11-23T04:33:20.264Z,0
2018-11-23T04:34:00.949Z,0
2018-11-23T04:34:41.404Z,0
2018-11-23T04:35:21.957Z,0
2018-11-23T04:36:02.507Z,0
2018-11-23T04:36:43.056Z,0
2018-11-23T04:37:23.621Z,0
2018-11-23T04:38:04.174Z,0
2018-11-23T04:38:44.715Z,0
2018-11-23T04:39:25.311Z,0
2018-11-23T04:40:05.871Z,0
2018-11-23T04:40:46.428Z,0
2018-11-23T04:41:26.975Z,0
2018-11-23T04:42:07.529Z,0
2018-11-23T04:42:48.087Z,0
2018-11-23T04:43:28.635Z,0
2018-11-23T04:44:09.193Z,0
2018-11-23T04:44:49.770Z,0
2018-11-23T04:45:30.326Z,0
2018-11-23T04:46:10.885Z,0
2018-11-23T04:46:51.442Z,0
2018-11-23T04:47:32.014Z,0
2018-11-23T04:48:12.582Z,0
2018-11-23T04:48:53.137Z,0
2018-11-23T04:49:33.743Z,0
2018-11-23T04:50:14.303Z,0
2018-11-23T04:50:54.852Z,0
2018-11-23T04:51:35.418Z,0
2018-11-23T04:52:15.987Z,0
2018-11-23T04:52:56.544Z,0
2018-11-23T04:53:37.118Z,0
2018-11-23T04:54:17.708Z,0
2018-11-23T04:54:58.224Z,0
2018-11-23T04:55:38.786Z,0
2018-11-23T04:56:19.358Z,0
2018-11-23T04:56:59.934Z,0
2018-11-23T04:57:40.502Z,0
2018-11-23T04:58:21.067Z,0
2018-11-23T04:59:01.614Z,0
2018-11-23T04:59:42.187Z,0
2018-11-23T05:00:22.756Z,0
2018-11-23T05:01:03.334Z,0
2018-11-23T05:01:43.902Z,0
2018-11-23T05:02:24.476Z,0
2018-11-23T05:03:05.025Z,0
2018-11-23T05:03:45.573Z,0
2018-11-23T05:04:26.361Z,0
2018-11-23T05:05:06.932Z,0
2018-11-23T05:05:47.459Z,0
2018-11-23T05:06:28.021Z,0
2018-11-23T05:07:08.571Z,0
2018-11-23T05:07:49.114Z,0
2018-11-23T05:08:29.677Z,0
2018-11-23T05:09:10.217Z,0
2018-11-23T05:09:50.778Z,0
2018-11-23T05:10:31.333Z,0
2018-11-23T05:11:11.918Z,0
2018-11-23T05:11:52.487Z,0
2018-11-23T05:12:33.039Z,0
2018-11-23T05:13:13.600Z,0
2018-11-23T05:13:54.150Z,0
2018-11-23T05:14:34.728Z,0
2018-11-23T05:15:15.288Z,0
2018-11-23T05:15:55.878Z,0
2018-11-23T05:16:36.468Z,0
2018-11-23T05:17:17.011Z,0
2018-11-23T05:17:57.563Z,0
2018-11-23T05:18:38.121Z,0
2018-11-23T05:19:18.690Z,0
2018-11-23T05:19:59.245Z,0
2018-11-23T05:20:39.823Z,0
2018-11-23T05:21:20.379Z,0
2018-11-23T05:22:00.941Z,0
2018-11-23T05:22:41.513Z,0
2018-11-23T05:23:22.080Z,0
2018-11-23T05:24:02.658Z,0
2018-11-23T05:24:43.253Z,0
2018-11-23T05:25:23.816Z,0
2018-11-23T05:26:04.361Z,0
2018-11-23T05:26:44.918Z,0
2018-11-23T05:27:25.517Z,0
2018-11-23T05:28:06.125Z,0
2018-11-23T05:28:46.683Z,0
2018-11-23T05:29:27.270Z,0
2018-11-23T05:30:07.804Z,0
2018-11-23T05:30:48.385Z,0
2018-11-23T05:31:28.949Z,0
2018-11-23T05:32:09.515Z,0
2018-11-23T05:32:50.114Z,0
2018-11-23T05:33:30.696Z,0
2018-11-23T05:34:11.244Z,0
2018-11-23T05:34:51.796Z,0
2018-11-23T05:35:32.386Z,0
2018-11-23T05:36:12.938Z,0
2018-11-23T05:36:53.479Z,0
2018-11-23T05:37:34.034Z,0
2018-11-23T05:38:14.596Z,0
2018-11-23T05:38:55.154Z,0
2018-11-23T05:39:35.722Z,0
2018-11-23T05:40:16.517Z,0
2018-11-23T05:40:57.035Z,0
2018-11-23T05:41:37.579Z,0
2018-11-23T05:42:18.150Z,0
2018-11-23T05:43:04.230Z,0
2018-11-23T05:43:39.655Z,0
2018-11-23T05:44:20.268Z,0
2018-11-23T05:45:00.856Z,0
2018-11-23T05:45:41.398Z,0
2018-11-23T05:46:21.950Z,0
2018-11-23T05:47:02.510Z,0
2018-11-23T05:47:43.063Z,0
2018-11-23T05:48:26.852Z,0
2018-11-23T05:49:04.703Z,0
2018-11-23T05:49:45.341Z,0
2018-11-23T05:50:26.273Z,0
2018-11-23T05:51:06.951Z,0
2018-11-23T05:51:47.549Z,0
2018-11-23T05:52:28.203Z,0
2018-11-23T05:53:09.032Z,0
2018-11-23T05:53:49.601Z,0
2018-11-23T05:54:30.160Z,0
2018-11-23T05:55:10.762Z,0
2018-11-23T05:55:51.505Z,0
2018-11-23T05:56:32.233Z,0
2018-11-23T05:57:12.796Z,0
2018-11-23T05:57:53.399Z,0
2018-11-23T05:58:33.948Z,0
2018-11-23T05:59:14.526Z,0
2018-11-23T05:59:55.109Z,0
2018-11-23T06:00:35.672Z,0
2018-11-23T06:01:16.232Z,0
2018-11-23T06:01:57.049Z,0
2018-11-23T06:02:38.411Z,0
2018-11-23T06:03:19.008Z,0
2018-11-23T06:03:59.534Z,0
2018-11-23T06:04:40.081Z,0
2018-11-23T06:05:20.631Z,0
2018-11-23T06:06:01.164Z,0
2018-11-23T06:06:42.411Z,0
2018-11-23T06:07:22.307Z,0
2018-11-23T06:08:02.869Z,0
2018-11-23T06:08:43.560Z,0
2018-11-23T06:09:24.192Z,0
2018-11-23T06:10:04.792Z,0
2018-11-23T06:10:45.354Z,0
2018-11-23T06:11:26.053Z,0
2018-11-23T06:12:06.765Z,0
2018-11-23T06:12:47.353Z,0
2018-11-23T06:13:27.922Z,0
2018-11-23T06:14:08.477Z,0
2018-11-23T06:14:49.039Z,0
2018-11-23T06:15:29.594Z,0
2018-11-23T06:16:10.211Z,0
2018-11-23T06:16:50.782Z,0
2018-11-23T06:17:31.337Z,0
2018-11-23T06:18:11.901Z,0
2018-11-23T06:18:52.450Z,4
2018-11-23T06:19:33.029Z,4
2018-11-23T06:20:13.597Z,4
2018-11-23T06:20:54.166Z,4
2018-11-23T06:21:34.719Z,0
2018-11-23T06:22:15.275Z,0
2018-11-23T06:22:55.820Z,0
2018-11-23T06:23:36.372Z,4
2018-11-23T06:24:16.946Z,4
2018-11-23T06:24:57.512Z,4
2018-11-23T06:25:38.187Z,4
2018-11-23T06:26:18.772Z,4
2018-11-23T06:26:59.365Z,4
2018-11-23T06:27:39.960Z,0
2018-11-23T06:28:20.614Z,4
2018-11-23T06:29:01.215Z,4
2018-11-23T06:29:41.807Z,8
2018-11-23T06:30:22.364Z,4
2018-11-23T06:31:02.911Z,8
2018-11-23T06:31:43.460Z,4
2018-11-23T06:32:24.022Z,8
2018-11-23T06:33:04.574Z,8
2018-11-23T06:33:45.138Z,8
2018-11-23T06:34:25.699Z,8
2018-11-23T06:35:06.270Z,8
2018-11-23T06:35:46.845Z,8
2018-11-23T06:36:27.414Z,8
2018-11-23T06:37:07.973Z,8
2018-11-23T06:37:48.530Z,12
2018-11-23T06:38:29.085Z,12
2018-11-23T06:39:09.655Z,8
2018-11-23T06:39:50.213Z,12
2018-11-23T06:40:30.781Z,8
2018-11-23T06:41:11.341Z,8
2018-11-23T06:41:52.014Z,12
2018-11-23T06:42:32.501Z,12
2018-11-23T06:43:13.074Z,12
2018-11-23T06:43:53.659Z,16
2018-11-23T06:44:34.221Z,12
2018-11-23T06:45:14.769Z,16
2018-11-23T06:45:55.338Z,16
2018-11-23T06:46:35.900Z,16
2018-11-23T06:47:16.510Z,20
2018-11-23T06:47:57.081Z,16
2018-11-23T06:48:37.657Z,16
2018-11-23T06:49:18.237Z,16
2018-11-23T06:49:58.799Z,16
2018-11-23T06:50:39.378Z,16
2018-11-23T06:51:19.943Z,20
2018-11-23T06:52:00.494Z,20
2018-11-23T06:52:41.065Z,20
2018-11-23T06:53:21.633Z,20
2018-11-23T06:54:02.211Z,20
2018-11-23T06:54:42.774Z,20
2018-11-23T06:55:23.348Z,20
2018-11-23T06:56:04.004Z,24
2018-11-23T06:56:44.593Z,24
2018-11-23T06:57:25.134Z,24
2018-11-23T06:58:05.667Z,24
2018-11-23T06:58:46.286Z,28
2018-11-23T06:59:26.906Z,24
2018-11-23T07:00:07.473Z,32
2018-11-23T07:00:48.029Z,28
2018-11-23T07:01:28.574Z,32
2018-11-23T07:02:09.129Z,32
2018-11-23T07:02:49.701Z,36
2018-11-23T07:03:30.255Z,40
2018-11-23T07:04:10.817Z,40
2018-11-23T07:04:51.411Z,44
2018-11-23T07:05:31.970Z,44
2018-11-23T07:06:12.518Z,44
2018-11-23T07:06:53.124Z,48
2018-11-23T07:07:33.674Z,52
2018-11-23T07:08:14.246Z,52
2018-11-23T07:08:54.879Z,56
2018-11-23T07:09:35.436Z,60
2018-11-23T07:10:16.030Z,64
2018-11-23T07:10:56.576Z,68
2018-11-23T07:11:37.140Z,68
2018-11-23T07:12:17.700Z,64
2018-11-23T07:12:58.282Z,64
2018-11-23T07:13:38.826Z,68
2018-11-23T07:14:19.391Z,72
2018-11-23T07:15:00.089Z,76
2018-11-23T07:15:40.604Z,80
2018-11-23T07:16:21.158Z,88
2018-11-23T07:17:01.728Z,92
2018-11-23T07:17:42.290Z,96
2018-11-23T07:18:22.835Z,96
2018-11-23T07:19:03.397Z,100
2018-11-23T07:19:43.975Z,96
2018-11-23T07:20:24.525Z,100
2018-11-23T07:21:05.081Z,108
2018-11-23T07:21:45.679Z,108
2018-11-23T07:22:26.246Z,112
2018-11-23T07:23:08.510Z,124
2018-11-23T07:23:49.078Z,132
2018-11-23T07:24:29.638Z,132
2018-11-23T07:25:10.188Z,140
2018-11-23T07:25:50.743Z,144
2018-11-23T07:26:31.326Z,148
2018-11-23T07:27:11.882Z,144
2018-11-23T07:27:52.517Z,136
2018-11-23T07:28:33.073Z,140
2018-11-23T07:29:13.631Z,148
2018-11-23T07:29:54.270Z,164
2018-11-23T07:30:34.852Z,172
2018-11-23T07:31:15.419Z,172
2018-11-23T07:31:56.004Z,164
2018-11-23T07:32:36.873Z,168
2018-11-23T07:33:17.445Z,180
2018-11-23T07:33:58.067Z,184
2018-11-23T07:34:38.648Z,200
2018-11-23T07:35:19.244Z,216
2018-11-23T07:35:59.803Z,224
2018-11-23T07:36:40.461Z,232
2018-11-23T07:37:21.254Z,240
2018-11-23T07:38:01.950Z,240
2018-11-23T07:38:42.513Z,236
2018-11-23T07:39:23.089Z,232
2018-11-23T07:40:03.650Z,236
2018-11-23T07:40:44.242Z,236
2018-11-23T07:41:24.916Z,240
2018-11-23T07:42:05.520Z,256
2018-11-23T07:42:46.277Z,264
2018-11-23T07:43:27.772Z,260
2018-11-23T07:44:08.438Z,244
2018-11-23T07:44:49.028Z,228
2018-11-23T07:45:29.980Z,236
2018-11-23T07:46:10.638Z,248
2018-11-23T07:46:51.196Z,244
2018-11-23T07:47:31.845Z,236
2018-11-23T07:48:12.496Z,236
2018-11-23T07:48:53.078Z,224
2018-11-23T07:49:33.667Z,212
2018-11-23T07:50:14.228Z,216
2018-11-23T07:50:55.785Z,224
2018-11-23T07:51:39.119Z,224
2018-11-23T07:52:16.080Z,220
2018-11-23T07:52:56.731Z,212
2018-11-23T07:53:37.311Z,216
2018-11-23T07:54:17.932Z,224
2018-11-23T07:54:58.527Z,224
2018-11-23T07:55:39.125Z,224
2018-11-23T07:56:20.059Z,232
2018-11-23T07:57:00.586Z,236
2018-11-23T07:57:41.209Z,236
2018-11-23T07:58:21.776Z,232
2018-11-23T07:59:02.389Z,252
2018-11-23T07:59:42.971Z,272
2018-11-23T08:00:23.538Z,280
2018-11-23T08:01:04.133Z,284
2018-11-23T08:01:44.709Z,288
2018-11-23T08:02:25.278Z,304
2018-11-23T08:03:05.866Z,316
2018-11-23T08:03:46.456Z,324
2018-11-23T08:04:27.044Z,312
2018-11-23T08:05:07.627Z,304
2018-11-23T08:05:48.176Z,320
2018-11-23T08:06:28.764Z,312
2018-11-23T08:07:09.286Z,304
2018-11-23T08:07:49.856Z,300
2018-11-23T08:08:30.430Z,312
2018-11-23T08:09:10.997Z,320
2018-11-23T08:09:51.626Z,324
2018-11-23T08:10:32.315Z,300
2018-11-23T08:11:12.991Z,280
2018-11-23T08:11:53.557Z,292
2018-11-23T08:12:34.127Z,308
2018-11-23T08:13:14.690Z,320
2018-11-23T08:13:55.295Z,316
2018-11-23T08:14:35.824Z,320
2018-11-23T08:15:16.373Z,312
2018-11-23T08:15:56.980Z,300
2018-11-23T08:16:37.503Z,288
2018-11-23T08:17:18.192Z,296
2018-11-23T08:17:58.764Z,312
2018-11-23T08:18:39.367Z,324
2018-11-23T08:19:19.954Z,328
2018-11-23T08:20:00.723Z,312
2018-11-23T08:20:41.286Z,292
2018-11-23T08:21:21.851Z,284
2018-11-23T08:22:02.425Z,288
2018-11-23T08:22:43.007Z,300
2018-11-23T08:23:23.597Z,300
2018-11-23T08:24:04.149Z,296
2018-11-23T08:24:44.707Z,264
2018-11-23T08:25:25.261Z,264
2018-11-23T08:26:05.856Z,276
2018-11-23T08:26:46.455Z,272
2018-11-23T08:27:27.028Z,256
2018-11-23T08:28:07.598Z,248
2018-11-23T08:28:48.213Z,248
2018-11-23T08:29:29.401Z,256
2018-11-23T08:30:09.967Z,256
2018-11-23T08:30:50.526Z,256
2018-11-23T08:31:31.105Z,252
2018-11-23T08:32:11.656Z,260
2018-11-23T08:32:52.220Z,268
2018-11-23T08:33:32.784Z,268
2018-11-23T08:34:13.329Z,280
2018-11-23T08:34:53.901Z,292
2018-11-23T08:35:34.459Z,292
2018-11-23T08:36:15.047Z,296
2018-11-23T08:36:55.651Z,296
2018-11-23T08:37:36.217Z,304
2018-11-23T08:38:16.784Z,324
2018-11-23T08:38:57.362Z,332
2018-11-23T08:39:37.961Z,332
2018-11-23T08:40:18.535Z,348
2018-11-23T08:40:59.086Z,364
2018-11-23T08:41:39.660Z,368
2018-11-23T08:42:20.246Z,364
2018-11-23T08:43:00.785Z,372
2018-11-23T08:43:41.354Z,380
2018-11-23T08:44:21.908Z,376
2018-11-23T08:45:02.474Z,388
2018-11-23T08:45:43.021Z,412
2018-11-23T08:46:23.596Z,460
2018-11-23T08:47:04.150Z,496
2018-11-23T08:47:44.702Z,512
2018-11-23T08:48:25.286Z,528
2018-11-23T08:49:05.860Z,544
2018-11-23T08:49:46.452Z,572
2018-11-23T08:50:27.035Z,572
2018-11-23T08:51:07.605Z,572
2018-11-23T08:51:48.169Z,560
2018-11-23T08:52:28.714Z,592
2018-11-23T08:53:09.285Z,592
2018-11-23T08:53:49.841Z,592
2018-11-23T08:54:30.381Z,600
2018-11-23T08:55:10.960Z,616
2018-11-23T08:55:51.521Z,644
2018-11-23T08:56:32.089Z,636
2018-11-23T08:57:12.648Z,628
2018-11-23T08:57:53.272Z,640
2018-11-23T08:58:33.776Z,660
2018-11-23T08:59:14.332Z,656
2018-11-23T08:59:54.891Z,656
2018-11-23T09:00:35.460Z,668
2018-11-23T09:01:16.048Z,676
2018-11-23T09:01:56.586Z,728
2018-11-23T09:02:37.164Z,748
2018-11-23T09:03:17.733Z,724
2018-11-23T09:03:58.307Z,728
2018-11-23T09:04:38.880Z,716
2018-11-23T09:05:19.451Z,680
2018-11-23T09:06:00.020Z,644
2018-11-23T09:06:40.596Z,644
2018-11-23T09:07:21.165Z,604
2018-11-23T09:08:01.735Z,584
2018-11-23T09:08:42.278Z,588
2018-11-23T09:09:22.875Z,572
2018-11-23T09:10:03.442Z,576
2018-11-23T09:10:43.997Z,584
2018-11-23T09:11:24.556Z,592
2018-11-23T09:12:05.105Z,604
2018-11-23T09:12:45.660Z,600
2018-11-23T09:13:26.242Z,580
2018-11-23T09:14:06.797Z,536
2018-11-23T09:14:47.372Z,508
2018-11-23T09:15:27.925Z,524
2018-11-23T09:16:08.480Z,540
2018-11-23T09:16:49.040Z,524
2018-11-23T09:17:29.590Z,504
2018-11-23T09:18:10.156Z,484
2018-11-23T09:18:50.721Z,468
2018-11-23T09:19:31.287Z,464
2018-11-23T09:20:11.837Z,488
2018-11-23T09:20:52.388Z,532
2018-11-23T09:21:32.970Z,556
2018-11-23T09:22:13.562Z,552
2018-11-23T09:22:54.096Z,532
2018-11-23T09:23:34.661Z,500
2018-11-23T09:24:15.246Z,484
2018-11-23T09:24:55.812Z,488
2018-11-23T09:25:36.377Z,468
2018-11-23T09:26:16.936Z,472
2018-11-23T09:26:57.500Z,492
2018-11-23T09:27:38.055Z,516
2018-11-23T09:28:18.644Z,528
2018-11-23T09:28:59.181Z,560
2018-11-23T09:29:39.735Z,580
2018-11-23T09:30:20.276Z,576
2018-11-23T09:31:00.840Z,564
2018-11-23T09:31:41.439Z,548
2018-11-23T09:32:22.142Z,536
2018-11-23T09:33:02.737Z,524
2018-11-23T09:33:43.289Z,516
2018-11-23T09:34:23.847Z,528
2018-11-23T09:35:04.429Z,544
2018-11-23T09:35:44.963Z,552
2018-11-23T09:36:25.555Z,564
2018-11-23T09:37:06.108Z,564
2018-11-23T09:37:46.681Z,568
2018-11-23T09:38:27.244Z,584
2018-11-23T09:39:07.815Z,588
2018-11-23T09:39:48.358Z,568
2018-11-23T09:40:28.919Z,548
2018-11-23T09:41:09.484Z,544
2018-11-23T09:41:50.036Z,548
2018-11-23T09:42:30.616Z,516
2018-11-23T09:43:11.166Z,528
2018-11-23T09:43:51.736Z,532
2018-11-23T09:44:32.304Z,556
2018-11-23T09:45:12.891Z,556
2018-11-23T09:45:53.455Z,564
2018-11-23T09:46:34.023Z,568
2018-11-23T09:47:14.743Z,540